This is the latest recevied weather packets stored in our database for station/object N3LF. If no packets are shown the sender has not sent any weather packets the latest 10 day(s).
| Time | Temp. | Humidity | Pressure | Rain* | Wind** | Luminosity | Snow |
|---|---|---|---|---|---|---|---|
| 1788394743 | 30° C | 72% | 1018.5 hPa | 0 mm | - | 2 W/m² | - |
| 1788394438 | 30.56° C | 70% | 1018.6 hPa | 0 mm | - | 4 W/m² | - |
| 1788394137 | 31.11° C | 69% | 1018.5 hPa | 0 mm | - | 7 W/m² | - |
| 1788393833 | 32.22° C | 64% | 1018.6 hPa | 0 mm | - | 10 W/m² | - |
| 1788393530 | 32.78° C | 61% | 1018.6 hPa | 0 mm | - | 13 W/m² | - |
| 1788393226 | 32.78° C | 59% | 1018.6 hPa | 0 mm | - | 17 W/m² | - |
| 1788392926 | 33.33° C | 58% | 1018.4 hPa | 0 mm | - | 20 W/m² | - |
| 1788392626 | 33.89° C | 56% | 1018.6 hPa | 0 mm | - | 23 W/m² | - |
| 1788392325 | 34.44° C | 55% | 1018.5 hPa | 0 mm | - | 27 W/m² | - |
| 1788392025 | 35° C | 54% | 1018.7 hPa | 0 mm | - | 30 W/m² | - |
| 1788391723 | 35° C | 54% | 1018.3 hPa | 0 mm | - | 39 W/m² | - |
| 1788391419 | 35.56° C | 53% | 1018.6 hPa | 0 mm | - | 45 W/m² | - |
| 1788391118 | 35.56° C | 51% | 1018.6 hPa | 0 mm | - | 51 W/m² | - |
| 1788390813 | 36.11° C | 50% | 1018.6 hPa | 0 mm | - | 58 W/m² | - |
| 1788390508 | 36.11° C | 50% | 1018.6 hPa | 0 mm | - | 65 W/m² | - |
| 1788390207 | 36.67° C | 48% | 1018.7 hPa | 0 mm | - | 62 W/m² | - |
| 1788389902 | 36.67° C | 48% | 1018.7 hPa | 0 mm | - | 82 W/m² | - |
| 1788389597 | 36.67° C | 48% | 1018.7 hPa | 0 mm | - | 92 W/m² | - |
| 1788389296 | 36.67° C | 49% | 1018.6 hPa | 0 mm | - | 102 W/m² | - |
| 1788388991 | 36.67° C | 50% | 1018.8 hPa | 0 mm | - | 113 W/m² | - |
| 1788388687 | 36.67° C | 48% | 1018.7 hPa | 0 mm | - | 125 W/m² | - |
| 1788388382 | 36.11° C | 47% | 1018.8 hPa | 0 mm | - | 136 W/m² | - |
| 1788388081 | 37.22° C | 47% | 1018.7 hPa | 0 mm | - | 147 W/m² | - |
| 1788387780 | 36.11° C | 47% | 1018.8 hPa | 0 mm | - | 160 W/m² | - |
| 1788387474 | 37.22° C | 44% | 1018.9 hPa | 0 mm | - | 175 W/m² | - |
* Rain latest hour (hover to see other rain measurements)
** Current wind speed in m/s (hover to see current wind gust speed)